• Join FlightAware (Why Join?)
  • Login
  • US Flag 
09:15PM EDT


 

Airport Tracker/Info


-or-


 

Live Flight TrackerFlight Track Log ✈ SWA3764 ✈ 04-May-2014 ✈ KONT - KDEN

Flight Track Log - Related Links

Times and Time Zones

All times are in EDT time to prevent confusion due to time zone crossing. See the SWA3764 flight status page for this flight to view local times or setup timezone preferences in your user account.

Time Position Orientation Groundspeed Altitude Reporting Facility
EDT Latitude Longitude Course Direction KTS MPH feet Rate Location/Type
09:35AM 34.0389 -117.5419 54° Northeast 253 291 2,500  Level Los Angeles Center
09:36AM 34.0242 -117.5978 252° West 219 252 5,000 2,460 Climbing Los Angeles Center
09:37AM 34.0636 -117.6606 307° West 230 265 7,500 2,280 Climbing Los Angeles Center
09:38AM 34.1058 -117.7281 307° West 244 281 9,600 2,400 Climbing Los Angeles Center
09:39AM 34.1519 -117.8031 307° West 269 310 12,400 1,860 Climbing Los Angeles Center
09:40AM 34.3905 -117.8214 54° Northeast  Level FlightAware Approximate
09:40AM 34.2247 -117.8386 338° Northwest 318 366 13,500  Level Los Angeles Center
09:41AM 34.2936 -117.7478 47° Northeast 363 418 15,800 1,920 Climbing Los Angeles Center
09:42AM 34.3525 -117.6403 56° Northeast 377 434 17,400 1,920 Climbing Los Angeles Center
09:43AM 34.4175 -117.5278 55° Northeast 402 463 19,800 2,040 Climbing Los Angeles Center
09:44AM 34.4817 -117.4175 55° Northeast 403 464 21,600 1,680 Climbing Los Angeles Center
09:45AM 34.5467 -117.3025 56° Northeast 409 471 23,300 1,500 Climbing Los Angeles Center
09:46AM 34.6153 -117.1853 55° Northeast 420 483 24,700 1,500 Climbing Los Angeles Center
09:47AM 34.7128 -117.0508 49° Northeast 444 511 26,400 1,440 Climbing Los Angeles Center
09:48AM 34.7950 -116.9392 48° Northeast 444 511 27,700 1,200 Climbing Los Angeles Center
09:49AM 34.8794 -116.8236 48° Northeast 457 526 28,900 1,200 Climbing Los Angeles Center
09:50AM 34.9653 -116.7069 48° Northeast 462 532 30,200 1,260 Climbing Los Angeles Center
09:51AM 35.0525 -116.5878 48° Northeast 460 529 31,500 1,140 Climbing Los Angeles Center
09:52AM 35.1344 -116.4761 48° Northeast 460 529 32,600 1,080 Climbing Los Angeles Center
09:53AM 35.2178 -116.3614 48° Northeast 458 527 33,700 900 Climbing Los Angeles Center
09:54AM 35.3014 -116.2461 48° Northeast 457 526 34,500 600 Climbing Los Angeles Center
09:55AM 35.3853 -116.1306 48° Northeast 456 525 35,000 240 Climbing Los Angeles Center
09:56AM 35.4694 -116.0119 49° Northeast 458 527 35,000  Level Los Angeles Center
09:57AM 35.5683 -115.8764 48° Northeast 461 531 35,000  Level Los Angeles Center
09:58AM 35.6547 -115.7608 47° Northeast 461 531 35,000  Level Los Angeles Center
09:59AM 35.7403 -115.6403 49° Northeast 465 535 35,000  Level Los Angeles Center
10:00AM 35.8267 -115.5189 49° Northeast 470 541 35,000  Level Los Angeles Center
10:01AM 35.9114 -115.3986 49° Northeast 469 540 35,000  Level Los Angeles Center
10:02AM 35.9953 -115.2778 49° Northeast 468 539 35,000  Level Los Angeles Center
10:03AM 36.0911 -115.1269 52° Northeast 468 539 35,000  Level Los Angeles Center
10:04AM 36.1433 -114.9761 67° East 477 549 35,000  Level Los Angeles Center
10:05AM 36.1958 -114.8283 66° East 477 549 35,000  Level Los Angeles Center
10:06AM 36.2478 -114.6811 66° East 469 540 35,000  Level Los Angeles Center
10:07AM 36.2994 -114.5322 67° East 471 542 35,000  Level Los Angeles Center
10:08AM 36.3506 -114.3842 67° East 470 541 35,000  Level Los Angeles Center
10:09AM 36.4036 -114.2353 66° East 470 541 35,000  Level Los Angeles Center
10:10AM 36.4542 -114.0858 67° East 470 541 35,000  Level Los Angeles Center
10:11AM 36.5119 -113.9183 67° East 471 542 35,000  Level Los Angeles Center
10:12AM 36.5631 -113.7683 67° East 471 542 35,000  Level Los Angeles Center
10:13AM 36.6128 -113.6189 67° East 471 542 35,000  Level Los Angeles Center
10:14AM 36.6642 -113.4703 67° East 471 542 35,000  Level Los Angeles Center
10:15AM 36.7150 -113.3203 67° East 471 542 35,000  Level Los Angeles Center
10:16AM 36.7658 -113.1689 67° East 472 543 35,000  Level Los Angeles Center
10:17AM 36.8158 -113.0172 68° East 473 544 35,000  Level Los Angeles Center
10:18AM 36.8753 -112.8358 68° East 473 544 35,000  Level Los Angeles Center
10:19AM 36.9261 -112.6839 67° East 475 547 35,000  Level Los Angeles Center
10:20AM 36.9761 -112.5319 68° East 475 547 35,000  Level Los Angeles Center
10:21AM 37.0250 -112.3792 68° East 475 547 35,000  Level Los Angeles Center
10:22AM 37.0747 -112.2269 68° East 475 547 35,000  Level Los Angeles Center
10:23AM 37.1231 -112.0739 68° East 475 547 35,000  Level Los Angeles Center
10:24AM 37.1731 -111.9206 68° East 476 548 35,000  Level Los Angeles Center
10:25AM 37.2217 -111.7667 68° East 477 549 35,000  Level Los Angeles Center
10:26AM 37.2706 -111.6125 68° East 477 549 35,000  Level Los Angeles Center
10:27AM 37.3300 -111.4264 68° East 477 549 35,000  Level Los Angeles Center
10:28AM 37.3775 -111.2728 69° East 477 549 35,000  Level Los Angeles Center
10:30AM 37.4347 -111.0853 69° East 479 551 35,000  Level Denver Center
10:31AM 37.4842 -110.9283 68° East 481 554 35,000  Level Denver Center
10:32AM 37.5422 -110.7406 69° East 481 554 35,000  Level Denver Center
10:33AM 37.5897 -110.5814 69° East 483 556 35,000  Level Denver Center
10:34AM 37.6364 -110.4283 69° East 483 556 35,000  Level Denver Center
10:35AM 37.6900 -110.2511 69° East 483 556 35,000  Level Denver Center
10:36AM 37.7356 -110.0992 69° East 484 557 35,000  Level Denver Center
10:37AM 37.7889 -109.9200 69° East 484 557 35,000  Level Denver Center
10:38AM 37.8342 -109.7647 70° East 486 559 35,000  Level Denver Center
10:39AM 37.8797 -109.6128 69° East 485 558 35,000  Level Denver Center
10:40AM 37.9397 -109.4067 70° East 487 560 35,000  Level Denver Center
10:41AM 37.9931 -109.2264 69° East 487 560 35,000  Level Denver Center
10:42AM 38.0378 -109.0706 70° East 488 562 35,000  Level Denver Center
10:43AM 38.0856 -108.9006 70° East 491 565 35,000  Level Denver Center
10:44AM 38.1300 -108.7444 70° East 491 565 35,000  Level Denver Center
10:45AM 38.1817 -108.5642 70° East 491 565 35,000  Level Denver Center
10:46AM 38.2250 -108.4111 70° East 487 560 35,000  Level Denver Center
10:47AM 38.2756 -108.2308 70° East 487 560 35,000  Level Denver Center
10:49AM 38.3178 -108.0775 71° East 484 557 35,000  Level Denver Center
10:50AM 38.3683 -107.8981 70° East 483 556 35,000  Level Denver Center
10:51AM 38.4106 -107.7431 71° East 483 556 35,000  Level Denver Center
10:52AM 38.4628 -107.5669 69° East 481 554 35,000  Level Denver Center
10:53AM 38.5283 -107.4242 60° Northeast 485 558 35,000  Level Denver Center
10:54AM 38.6003 -107.2631 60° Northeast 477 549 35,000  Level Denver Center
10:55AM 38.6589 -107.1322 60° Northeast 475 547 35,000  Level Denver Center
10:56AM 38.7231 -106.9850 61° Northeast 475 547 35,000  Level Denver Center
10:57AM 38.7872 -106.8394 60° Northeast 474 545 35,000  Level Denver Center
10:58AM 38.8644 -106.6644 60° Northeast 474 545 35,000  Level Denver Center
10:59AM 38.9333 -106.5172 59° Northeast 474 545 35,000  Level Denver Center
11:00AM 38.9978 -106.3786 59° Northeast 475 547 35,000 -780 Level Denver Center
11:01AM 39.0711 -106.2161 60° Northeast 474 545 33,500 -2,160 Descending Denver Center
11:02AM 39.1347 -106.0750 60° Northeast 465 535 30,600 -3,180 Descending Denver Center
11:03AM 39.1981 -105.9294 61° Northeast 465 535 27,100 -3,420 Descending Denver Center
11:04AM 39.2642 -105.7797 60° Northeast 477 549 23,700 -2,880 Descending Denver Center
11:05AM 39.3297 -105.6297 60° Northeast 480 552 21,200 -1,800 Descending Denver Center
11:06AM 39.3992 -105.4758 60° Northeast 439 505 20,000 -1,140 Descending Denver Center
11:07AM 39.4633 -105.3553 55° Northeast 378 435 18,900 -1,140 Descending Denver Center
11:08AM 39.5181 -105.2497 56° Northeast 353 406 17,700 -960 Descending Denver Center
11:09AM 39.5783 -105.1342 56° Northeast 358 412 17,000 -660 Descending Denver Center
11:10AM 39.6342 -105.0247 56° Northeast 363 418 16,400 -1,200 Descending Denver Center
11:11AM 39.6944 -104.9100 56° Northeast 359 413 14,500 -1,740 Descending Denver Center
11:12AM 39.7647 -104.8406 37° Northeast 328 377 12,900 -1,500 Descending Denver Center
11:13AM 39.8519 -104.8403 360° North 313 360 11,500 -1,020 Descending Denver Center
11:14AM 39.9372 -104.8389 North 276 318 10,900 -1,020 Descending Denver Center
11:15AM 40.0078 -104.8397 359° North 255 293 9,500 -1,080 Descending Denver Center
11:16AM 40.0706 -104.8386 North 260 299 8,700 -840 Descending Denver Center
11:17AM 40.0761 -104.7392 86° East 244 281 7,800 -780 Descending Denver Center
11:18AM 40.0244 -104.6983 149° Southeast 217 250 7,100 -540 Descending Denver Center
11:19AM 39.9706 -104.6958 178° South 194 223 6,800 -600 Descending Denver Center
11:21AM 39.9242 -104.6956 180° South 158 182 5,900 -780 Descending Denver Center
11:22AM 39.8833 -104.6964 181° South 151 174 5,300 -600 Descending Denver Center
11:24AM 39.8617 -104.6732 159° South  Level Estimated
11:31AM 39.8617 -104.6732 159° South  Level Estimated
11:32AM 39.8617 -104.6732 159° South  Level Estimated